Time;durP1;ratioP1;P1;durP2;ratioP2;P2;SDS_P1;SDS_P2;PMS_P1;PMS_P2;Temp;Humidity;BMP_temperature;BMP_pressure;BME280_temperature;BME280_humidity;BME280_pressure;Samples;Min_cycle;Max_cycle;Signal;HPM_P1;HPM_P2
2021/06/15 00:02:19;;;;;;;;;;;21.40;57.80;;;;;;5036737;28;19917;-65
2021/06/15 00:04:45;;;;;;;;;;;21.40;57.80;;;;;;5039699;28;19927;-64
2021/06/15 00:07:10;;;;;;;;;;;21.40;57.70;;;;;;5021219;28;19970;-65
2021/06/15 00:09:36;;;;;;;;;;;21.50;57.80;;;;;;5036416;28;20011;-64
2021/06/15 00:12:03;;;;;;;;;;;21.50;57.80;;;;;;5037504;28;20348;-64
2021/06/15 00:14:28;;;;;;;;;;;21.50;57.70;;;;;;5038894;28;19924;-64
2021/06/15 00:16:53;;;;;;;;;;;21.40;57.80;;;;;;5027128;28;19921;-65
2021/06/15 00:19:19;;;;;;;;;;;21.50;57.80;;;;;;5037403;28;19947;-64
2021/06/15 00:21:44;;;;;;;;;;;21.50;57.80;;;;;;5032434;28;19917;-65
2021/06/15 00:24:10;;;;;;;;;;;21.40;57.70;;;;;;5040007;28;19962;-64
2021/06/15 00:26:35;;;;;;;;;;;21.40;57.80;;;;;;5039823;28;19917;-65
2021/06/15 00:29:01;;;;;;;;;;;21.40;57.70;;;;;;5030181;28;20137;-64
2021/06/15 00:31:27;;;;;;;;;;;21.40;57.80;;;;;;5028768;28;19955;-64
2021/06/15 00:33:53;;;;;;;;;;;21.50;57.80;;;;;;5017427;28;19929;-64
2021/06/15 00:36:19;;;;;;;;;;;21.50;57.90;;;;;;5028442;28;20439;-63
2021/06/15 00:38:44;;;;;;;;;;;21.40;57.80;;;;;;5034481;28;20320;-65
2021/06/15 00:41:09;;;;;;;;;;;21.40;57.70;;;;;;5037258;28;19920;-63
2021/06/15 00:43:35;;;;;;;;;;;21.50;57.80;;;;;;5031211;28;20482;-64
2021/06/15 00:46:00;;;;;;;;;;;21.50;57.80;;;;;;5041966;28;19974;-64
2021/06/15 00:48:26;;;;;;;;;;;21.50;57.80;;;;;;5020685;28;19924;-64
2021/06/15 00:50:52;;;;;;;;;;;21.50;57.80;;;;;;5026556;28;19975;-64
2021/06/15 00:53:17;;;;;;;;;;;21.50;57.90;;;;;;5039234;28;20553;-64
2021/06/15 00:55:43;;;;;;;;;;;21.50;57.80;;;;;;5033142;28;19921;-64
2021/06/15 00:58:08;;;;;;;;;;;21.50;57.90;;;;;;5038538;28;19921;-64
2021/06/15 01:00:34;;;;;;;;;;;21.50;57.80;;;;;;5030781;28;20297;-64
2021/06/15 01:02:59;;;;;;;;;;;21.50;57.80;;;;;;5037824;28;19944;-64
2021/06/15 01:05:25;;;;;;;;;;;21.50;57.90;;;;;;5023342;28;19923;-64
2021/06/15 01:07:55;;;;;;;;;;;21.50;57.80;;;;;;5037667;28;19916;-64
2021/06/15 01:10:39;;;;;;;;;;;21.40;57.60;;;;;;5034204;28;19960;-65
2021/06/15 01:13:10;;;;;;;;;;;21.50;57.90;;;;;;5033427;28;19917;-64
2021/06/15 01:15:39;;;;;;;;;;;21.50;57.80;;;;;;5021693;28;19924;-64
2021/06/15 01:18:12;;;;;;;;;;;21.50;57.80;;;;;;5022356;28;20568;-64
2021/06/15 01:20:38;;;;;;;;;;;21.50;57.80;;;;;;5027997;28;19920;-64
2021/06/15 01:23:22;;;;;;;;;;;21.40;57.80;;;;;;5024936;28;19920;-65
2021/06/15 01:25:47;;;;;;;;;;;21.50;57.80;;;;;;5033765;28;19978;-65
2021/06/15 01:28:22;;;;;;;;;;;21.50;58.00;;;;;;5039903;28;20020;-64
2021/06/15 01:30:49;;;;;;;;;;;21.50;58.00;;;;;;5036120;28;19967;-64
2021/06/15 01:33:14;;;;;;;;;;;21.50;57.90;;;;;;5023222;28;19917;-64
2021/06/15 01:35:40;;;;;;;;;;;21.50;57.90;;;;;;5035598;28;19924;-65
2021/06/15 01:38:07;;;;;;;;;;;21.50;57.90;;;;;;5037669;28;19927;-64
2021/06/15 01:40:36;;;;;;;;;;;21.50;58.00;;;;;;5035724;28;19932;-64
2021/06/15 01:43:02;;;;;;;;;;;21.50;57.80;;;;;;5033020;28;19921;-64
2021/06/15 01:45:29;;;;;;;;;;;21.50;57.80;;;;;;5027457;28;20212;-64
2021/06/15 01:47:58;;;;;;;;;;;21.50;57.90;;;;;;5037821;28;19924;-64
2021/06/15 01:50:31;;;;;;;;;;;21.50;58.00;;;;;;5016218;28;19920;-64
2021/06/15 01:52:56;;;;;;;;;;;21.40;57.80;;;;;;5037905;28;19932;-64
2021/06/15 01:55:22;;;;;;;;;;;21.50;57.90;;;;;;5038547;28;19917;-64
2021/06/15 01:57:47;;;;;;;;;;;21.50;57.80;;;;;;5020886;28;19927;-64
2021/06/15 02:00:13;;;;;;;;;;;21.50;57.80;;;;;;5020622;28;20286;-64
2021/06/15 02:02:38;;;;;;;;;;;21.50;57.90;;;;;;5038452;28;19929;-64
2021/06/15 02:05:08;;;;;;;;;;;21.50;57.80;;;;;;5031563;28;19927;-64
2021/06/15 02:07:34;;;;;;;;;;;21.40;57.70;;;;;;5037570;28;19924;-64
2021/06/15 02:10:02;;;;;;;;;;;21.50;57.80;;;;;;5024371;28;19920;-64
2021/06/15 02:12:28;;;;;;;;;;;21.40;57.70;;;;;;5034367;28;19964;-64
2021/06/15 02:14:54;;;;;;;;;;;21.40;57.80;;;;;;5035374;28;19964;-63
2021/06/15 02:17:19;;;;;;;;;;;21.40;57.70;;;;;;5037969;28;19932;-64
2021/06/15 02:19:44;;;;;;;;;;;21.40;57.60;;;;;;5022411;28;19921;-64
2021/06/15 02:22:11;;;;;;;;;;;21.40;57.60;;;;;;5037286;28;19932;-64
2021/06/15 02:24:38;;;;;;;;;;;21.40;57.60;;;;;;5009755;28;21535;-68
2021/06/15 02:27:04;;;;;;;;;;;21.40;57.70;;;;;;5028417;28;19924;-64
2021/06/15 02:29:30;;;;;;;;;;;21.40;57.60;;;;;;5023074;28;20292;-64
2021/06/15 02:31:56;;;;;;;;;;;21.40;57.70;;;;;;5020239;28;19921;-63
2021/06/15 02:34:21;;;;;;;;;;;21.40;57.70;;;;;;5039802;28;20301;-63
2021/06/15 02:36:47;;;;;;;;;;;21.40;57.60;;;;;;5027274;28;19917;-64
2021/06/15 02:39:15;;;;;;;;;;;21.40;57.60;;;;;;5021932;28;19917;-64
2021/06/15 02:41:42;;;;;;;;;;;21.40;57.60;;;;;;5020137;28;20825;-64
2021/06/15 02:44:08;;;;;;;;;;;21.40;57.50;;;;;;5005126;28;19929;-65
2021/06/15 02:46:34;;;;;;;;;;;21.40;57.50;;;;;;5032607;22;20416;-62
2021/06/15 02:49:00;;;;;;;;;;;21.40;57.40;;;;;;5015577;28;19956;-62
2021/06/15 02:51:26;;;;;;;;;;;21.40;57.40;;;;;;5014243;28;19995;-61
2021/06/15 02:53:52;;;;;;;;;;;21.40;57.40;;;;;;5016254;28;19941;-59
2021/06/15 02:56:19;;;;;;;;;;;21.40;57.40;;;;;;4998276;28;20550;-61
2021/06/15 02:58:45;;;;;;;;;;;21.40;57.40;;;;;;4998676;28;19921;-62
2021/06/15 03:01:10;;;;;;;;;;;21.50;57.40;;;;;;5016702;28;19917;-61
2021/06/15 03:03:36;;;;;;;;;;;21.40;57.30;;;;;;5016937;28;19918;-62
2021/06/15 03:06:02;;;;;;;;;;;21.40;57.40;;;;;;5016650;28;20267;-62
2021/06/15 03:08:27;;;;;;;;;;;21.40;57.30;;;;;;5015172;28;19932;-62
2021/06/15 03:10:53;;;;;;;;;;;21.40;57.30;;;;;;5015639;28;19925;-62
2021/06/15 03:13:19;;;;;;;;;;;21.40;57.30;;;;;;5015390;28;19925;-61
2021/06/15 03:15:45;;;;;;;;;;;21.40;57.20;;;;;;5014157;28;19923;-62
2021/06/15 03:18:14;;;;;;;;;;;21.40;57.20;;;;;;5015732;28;19960;-61
2021/06/15 03:20:39;;;;;;;;;;;21.40;57.20;;;;;;4998497;28;19943;-59
2021/06/15 03:23:08;;;;;;;;;;;21.40;57.20;;;;;;4982089;28;19921;-60
2021/06/15 03:25:34;;;;;;;;;;;21.40;57.20;;;;;;4998053;28;20015;-61
2021/06/15 03:28:01;;;;;;;;;;;21.40;57.30;;;;;;5014973;28;20064;-62
2021/06/15 03:30:27;;;;;;;;;;;21.40;57.20;;;;;;4996597;28;19931;-60
2021/06/15 03:32:53;;;;;;;;;;;21.40;57.30;;;;;;4999096;28;20600;-61
2021/06/15 03:35:18;;;;;;;;;;;21.40;57.30;;;;;;4982404;28;19975;-61
2021/06/15 03:37:48;;;;;;;;;;;21.40;57.20;;;;;;4998642;28;19925;-58
2021/06/15 03:40:14;;;;;;;;;;;21.40;57.10;;;;;;5014808;28;20288;-61
2021/06/15 03:42:40;;;;;;;;;;;21.40;57.20;;;;;;4999116;28;20085;-62
2021/06/15 03:45:06;;;;;;;;;;;21.40;57.20;;;;;;5014164;28;19929;-61
2021/06/15 03:47:31;;;;;;;;;;;21.40;57.20;;;;;;5016145;28;20008;-60
2021/06/15 03:49:57;;;;;;;;;;;21.40;56.90;;;;;;4998431;28;20116;-61
2021/06/15 03:52:22;;;;;;;;;;;21.40;56.80;;;;;;5018406;28;19925;-61
2021/06/15 03:54:48;;;;;;;;;;;21.40;56.70;;;;;;5001378;28;19949;-61
2021/06/15 03:57:13;;;;;;;;;;;21.40;56.70;;;;;;5019686;28;19917;-61
2021/06/15 03:59:39;;;;;;;;;;;21.40;56.60;;;;;;5002657;28;19921;-62
2021/06/15 04:02:06;;;;;;;;;;;21.40;56.60;;;;;;5000850;28;20382;-62
2021/06/15 04:04:32;;;;;;;;;;;21.40;56.60;;;;;;5018463;28;21399;-59
2021/06/15 04:06:57;;;;;;;;;;;21.40;56.60;;;;;;5000760;28;19970;-58
2021/06/15 04:09:26;;;;;;;;;;;21.40;56.60;;;;;;5018428;28;19924;-60
2021/06/15 04:11:52;;;;;;;;;;;21.40;56.60;;;;;;5000571;28;20192;-61
2021/06/15 04:14:18;;;;;;;;;;;21.40;56.60;;;;;;5019644;28;19964;-62
2021/06/15 04:16:44;;;;;;;;;;;21.40;56.50;;;;;;5017078;28;19921;-62
2021/06/15 04:19:12;;;;;;;;;;;21.40;56.50;;;;;;4999839;28;19917;-61
2021/06/15 04:21:38;;;;;;;;;;;21.40;56.50;;;;;;5000782;28;19921;-62
2021/06/15 04:24:06;;;;;;;;;;;21.40;56.50;;;;;;5019196;28;19925;-62
2021/06/15 04:26:34;;;;;;;;;;;21.40;56.40;;;;;;5001470;28;19959;-60
2021/06/15 04:28:59;;;;;;;;;;;21.40;56.50;;;;;;5001681;28;19985;-62
2021/06/15 04:31:25;;;;;;;;;;;21.40;56.60;;;;;;4985040;28;20509;-62
2021/06/15 04:33:50;;;;;;;;;;;21.40;56.80;;;;;;5018156;28;19917;-62
2021/06/15 04:36:16;;;;;;;;;;;21.40;56.80;;;;;;5018487;28;19917;-61
2021/06/15 04:38:50;;;;;;;;;;;21.40;56.90;;;;;;5017185;28;19921;-61
2021/06/15 04:41:17;;;;;;;;;;;21.40;56.90;;;;;;5018406;28;19974;-61
2021/06/15 04:43:49;;;;;;;;;;;21.40;57.00;;;;;;5000789;28;19921;-59
2021/06/15 04:46:24;;;;;;;;;;;21.40;57.00;;;;;;5001001;28;19987;-62
2021/06/15 04:48:53;;;;;;;;;;;21.40;57.20;;;;;;4996432;28;19917;-62
2021/06/15 04:51:20;;;;;;;;;;;21.40;57.30;;;;;;4982703;28;19979;-60
2021/06/15 04:53:45;;;;;;;;;;;21.40;57.50;;;;;;5000375;28;19917;-63
2021/06/15 04:56:11;;;;;;;;;;;21.40;58.00;;;;;;5000605;28;20436;-62
2021/06/15 04:58:36;;;;;;;;;;;21.40;58.50;;;;;;5017281;28;19955;-62
2021/06/15 05:01:02;;;;;;;;;;;21.40;59.20;;;;;;4999684;28;19991;-63
2021/06/15 05:03:28;;;;;;;;;;;21.40;59.70;;;;;;5016600;28;20566;-61
2021/06/15 05:05:53;;;;;;;;;;;21.40;59.90;;;;;;5018425;28;19925;-61
2021/06/15 05:08:20;;;;;;;;;;;21.40;60.10;;;;;;5017258;28;20344;-62
2021/06/15 05:10:45;;;;;;;;;;;21.40;60.10;;;;;;5017693;28;19996;-61
2021/06/15 05:13:11;;;;;;;;;;;21.40;60.00;;;;;;5000259;28;20279;-60
2021/06/15 05:15:37;;;;;;;;;;;21.40;59.80;;;;;;5018331;28;20096;-62
2021/06/15 05:18:02;;;;;;;;;;;21.40;59.50;;;;;;5018724;28;19928;-62
2021/06/15 05:20:27;;;;;;;;;;;21.40;59.40;;;;;;5000039;28;20511;-61
2021/06/15 05:22:57;;;;;;;;;;;21.40;59.20;;;;;;5017542;28;19921;-63
2021/06/15 05:25:23;;;;;;;;;;;21.40;59.10;;;;;;5001860;28;19971;-60
2021/06/15 05:27:48;;;;;;;;;;;21.40;59.20;;;;;;4999280;28;19917;-61
2021/06/15 05:30:14;;;;;;;;;;;21.40;59.30;;;;;;5001374;28;19913;-61
2021/06/15 05:32:39;;;;;;;;;;;21.40;59.30;;;;;;5018367;28;19924;-60
2021/06/15 05:35:05;;;;;;;;;;;21.40;59.40;;;;;;5017895;28;19979;-61
2021/06/15 05:37:30;;;;;;;;;;;21.40;59.50;;;;;;5017587;28;20517;-60
2021/06/15 05:39:56;;;;;;;;;;;21.40;59.50;;;;;;5012256;28;20297;-62
2021/06/15 05:42:22;;;;;;;;;;;21.40;59.60;;;;;;5018349;28;19921;-62
2021/06/15 05:44:47;;;;;;;;;;;21.40;59.60;;;;;;5019003;28;19916;-61
2021/06/15 05:47:12;;;;;;;;;;;21.40;59.70;;;;;;5019451;28;19921;-59
2021/06/15 05:49:38;;;;;;;;;;;21.40;59.70;;;;;;5002528;28;19932;-61
2021/06/15 05:52:07;;;;;;;;;;;21.40;59.70;;;;;;5019597;28;19968;-63
2021/06/15 05:54:33;;;;;;;;;;;21.40;59.60;;;;;;5020152;28;19913;-61
2021/06/15 05:56:58;;;;;;;;;;;21.40;59.50;;;;;;4985846;28;20425;-62
2021/06/15 05:59:24;;;;;;;;;;;21.40;59.50;;;;;;5002114;28;19917;-58
2021/06/15 06:01:49;;;;;;;;;;;21.40;59.40;;;;;;5001515;28;20749;-62
2021/06/15 06:04:17;;;;;;;;;;;21.40;59.30;;;;;;5020103;28;19917;-62
2021/06/15 06:09:27;;;;;;;;;;;21.40;59.20;;;;;;5019468;28;20397;-61
2021/06/15 06:11:52;;;;;;;;;;;21.40;59.20;;;;;;5019001;28;19925;-61
2021/06/15 06:14:18;;;;;;;;;;;21.40;59.30;;;;;;5018588;28;20626;-61
2021/06/15 06:16:43;;;;;;;;;;;21.40;59.20;;;;;;5002275;28;19959;-61
2021/06/15 06:19:10;;;;;;;;;;;21.40;59.10;;;;;;5019285;28;19923;-61
2021/06/15 06:21:35;;;;;;;;;;;21.40;58.90;;;;;;5002020;28;19920;-58
2021/06/15 06:24:01;;;;;;;;;;;21.40;58.80;;;;;;5002016;28;20308;-61
2021/06/15 06:26:26;;;;;;;;;;;21.40;58.70;;;;;;5019752;28;19918;-60
2021/06/15 06:28:52;;;;;;;;;;;21.40;58.60;;;;;;5017467;28;19995;-60
2021/06/15 06:31:17;;;;;;;;;;;21.40;58.70;;;;;;5000303;28;19921;-58
2021/06/15 06:33:43;;;;;;;;;;;21.30;58.80;;;;;;5017794;28;20091;-58
2021/06/15 06:36:08;;;;;;;;;;;21.40;58.90;;;;;;4999486;28;19929;-58
2021/06/15 06:38:34;;;;;;;;;;;21.40;59.10;;;;;;5017826;28;20370;-60
2021/06/15 06:40:59;;;;;;;;;;;21.40;59.10;;;;;;5017802;28;19932;-60
2021/06/15 06:43:25;;;;;;;;;;;21.40;59.20;;;;;;5017649;28;19913;-61
2021/06/15 06:45:52;;;;;;;;;;;21.40;59.10;;;;;;5017731;28;20418;-61
2021/06/15 06:48:18;;;;;;;;;;;21.30;59.10;;;;;;5017482;28;19932;-61
2021/06/15 06:50:43;;;;;;;;;;;21.30;59.10;;;;;;5017408;28;19921;-60
2021/06/15 06:53:09;;;;;;;;;;;21.30;59.20;;;;;;5016075;28;19921;-60
2021/06/15 06:55:34;;;;;;;;;;;21.40;59.30;;;;;;5016442;28;20023;-59
2021/06/15 06:58:01;;;;;;;;;;;21.30;59.10;;;;;;5016922;28;19917;-60
2021/06/15 07:00:26;;;;;;;;;;;21.40;59.20;;;;;;5017306;28;20359;-61
2021/06/15 07:02:51;;;;;;;;;;;21.30;59.20;;;;;;4999732;28;19963;-58
2021/06/15 07:05:17;;;;;;;;;;;21.30;59.20;;;;;;5016732;28;20681;-60
2021/06/15 07:07:42;;;;;;;;;;;21.40;59.20;;;;;;5016733;28;19921;-59
2021/06/15 07:10:08;;;;;;;;;;;21.30;59.10;;;;;;5015621;28;20485;-61
2021/06/15 07:12:34;;;;;;;;;;;21.40;59.30;;;;;;4998925;28;19925;-57
2021/06/15 07:14:59;;;;;;;;;;;21.30;59.20;;;;;;4999097;28;19932;-58
2021/06/15 07:17:24;;;;;;;;;;;21.30;59.20;;;;;;5016111;28;20089;-57
2021/06/15 07:19:50;;;;;;;;;;;21.30;59.20;;;;;;5016178;28;19917;-59
2021/06/15 07:22:16;;;;;;;;;;;21.30;59.10;;;;;;5017297;28;19948;-58
2021/06/15 07:24:42;;;;;;;;;;;21.30;59.10;;;;;;5016775;28;19944;-60
2021/06/15 07:27:07;;;;;;;;;;;21.30;59.10;;;;;;5003098;28;19957;-57
2021/06/15 07:29:33;;;;;;;;;;;21.30;59.00;;;;;;5020569;28;19923;-57
2021/06/15 07:31:58;;;;;;;;;;;21.30;58.90;;;;;;5002684;28;20390;-57
2021/06/15 07:34:24;;;;;;;;;;;21.30;58.90;;;;;;5020760;28;19923;-58
2021/06/15 07:36:49;;;;;;;;;;;21.30;59.00;;;;;;5021043;28;19971;-60
2021/06/15 07:39:15;;;;;;;;;;;21.30;59.00;;;;;;5020389;28;20260;-59
2021/06/15 07:41:40;;;;;;;;;;;21.30;58.90;;;;;;5002453;28;19947;-62
2021/06/15 07:44:06;;;;;;;;;;;21.30;58.90;;;;;;5020312;28;19971;-57
2021/06/15 07:46:31;;;;;;;;;;;21.30;59.00;;;;;;5002710;28;19929;-58
2021/06/15 07:48:57;;;;;;;;;;;21.30;58.90;;;;;;5002626;28;19913;-60
2021/06/15 07:51:22;;;;;;;;;;;21.30;58.90;;;;;;5020167;28;19935;-55
2021/06/15 07:53:48;;;;;;;;;;;21.40;59.10;;;;;;5019932;28;19952;-60
2021/06/15 07:56:13;;;;;;;;;;;21.30;59.10;;;;;;5019484;28;19917;-58
2021/06/15 07:58:39;;;;;;;;;;;21.40;59.20;;;;;;5019530;28;19970;-60
2021/06/15 08:01:04;;;;;;;;;;;21.30;59.20;;;;;;5019284;28;19963;-61
2021/06/15 08:03:30;;;;;;;;;;;21.40;59.30;;;;;;5020693;28;20381;-59
2021/06/15 08:05:55;;;;;;;;;;;21.30;59.30;;;;;;5020729;28;19996;-61
2021/06/15 08:08:20;;;;;;;;;;;21.40;59.40;;;;;;5020096;28;19917;-58
2021/06/15 08:10:46;;;;;;;;;;;21.30;59.30;;;;;;5019923;28;19971;-59
2021/06/15 08:13:11;;;;;;;;;;;21.40;59.50;;;;;;5020301;28;19917;-57
2021/06/15 08:15:37;;;;;;;;;;;21.30;59.50;;;;;;5020206;28;19913;-61
2021/06/15 08:18:02;;;;;;;;;;;21.40;59.50;;;;;;5019563;28;20282;-55
2021/06/15 08:20:28;;;;;;;;;;;21.40;59.50;;;;;;5019331;28;19928;-59
2021/06/15 08:22:53;;;;;;;;;;;21.40;59.50;;;;;;5001296;28;19947;-58
2021/06/15 08:25:19;;;;;;;;;;;21.40;59.60;;;;;;5019214;28;20482;-61
2021/06/15 08:27:44;;;;;;;;;;;21.40;59.60;;;;;;5019211;28;19917;-59
2021/06/15 08:30:10;;;;;;;;;;;21.30;59.40;;;;;;5018308;28;19921;-59
2021/06/15 08:32:36;;;;;;;;;;;21.40;59.50;;;;;;5019656;28;20027;-57
2021/06/15 08:35:01;;;;;;;;;;;21.30;59.40;;;;;;4985681;28;20793;-57
2021/06/15 08:37:26;;;;;;;;;;;21.40;59.40;;;;;;5019052;28;19913;-60
2021/06/15 08:39:52;;;;;;;;;;;21.40;59.40;;;;;;5019347;28;19914;-61
2021/06/15 08:42:17;;;;;;;;;;;21.40;59.40;;;;;;5002334;28;19971;-60
2021/06/15 08:44:43;;;;;;;;;;;21.40;59.40;;;;;;5019630;28;19917;-59
2021/06/15 08:47:08;;;;;;;;;;;21.40;59.50;;;;;;5026577;22;20273;-68
2021/06/15 08:49:34;;;;;;;;;;;21.30;59.60;;;;;;5040701;28;20346;-67
2021/06/15 08:51:59;;;;;;;;;;;21.40;59.60;;;;;;5044577;28;19921;-67
2021/06/15 08:54:25;;;;;;;;;;;21.40;59.50;;;;;;5042356;28;19928;-67
2021/06/15 08:56:50;;;;;;;;;;;21.40;59.50;;;;;;5047743;28;19917;-68
2021/06/15 08:59:20;;;;;;;;;;;21.40;59.60;;;;;;5038398;28;20765;-67
2021/06/15 09:01:46;;;;;;;;;;;21.40;59.50;;;;;;5042145;28;20028;-68
2021/06/15 09:04:11;;;;;;;;;;;21.40;59.60;;;;;;5043356;28;20032;-68
2021/06/15 09:06:36;;;;;;;;;;;21.40;59.70;;;;;;5042691;28;19924;-68
2021/06/15 09:09:02;;;;;;;;;;;21.40;59.80;;;;;;5042217;28;19913;-68
2021/06/15 09:11:44;;;;;;;;;;;21.40;59.90;;;;;;5041868;28;20180;-68
2021/06/15 09:14:10;;;;;;;;;;;21.40;59.50;;;;;;5038352;28;19928;-68
2021/06/15 09:16:36;;;;;;;;;;;21.40;59.90;;;;;;5042052;28;19921;-68
2021/06/15 09:19:12;;;;;;;;;;;21.40;59.90;;;;;;5041253;28;19944;-69
2021/06/15 09:21:38;;;;;;;;;;;21.40;60.50;;;;;;5034119;28;19916;-68
2021/06/15 09:24:07;;;;;;;;;;;21.40;59.70;;;;;;5042276;28;19920;-67
2021/06/15 09:26:52;;;;;;;;;;;21.40;59.70;;;;;;5031387;28;20615;-67
2021/06/15 09:29:18;;;;;;;;;;;21.40;59.70;;;;;;5042557;28;19974;-68
2021/06/15 09:31:53;;;;;;;;;;;21.40;59.70;;;;;;5042338;28;20168;-68
2021/06/15 09:34:19;;;;;;;;;;;21.40;59.70;;;;;;5044288;28;20403;-67
2021/06/15 09:36:44;;;;;;;;;;;21.50;59.70;;;;;;5049771;28;19917;-67
2021/06/15 09:39:10;;;;;;;;;;;21.40;59.70;;;;;;5039854;28;20391;-67
2021/06/15 09:41:45;;;;;;;;;;;21.40;59.70;;;;;;5031435;28;19997;-68
2021/06/15 09:44:14;;;;;;;;;;;21.40;59.80;;;;;;5042396;28;20027;-68
2021/06/15 09:46:43;;;;;;;;;;;21.50;59.70;;;;;;5041626;28;20107;-68
2021/06/15 09:49:09;;;;;;;;;;;21.40;59.90;;;;;;5041034;28;19925;-68
2021/06/15 09:51:35;;;;;;;;;;;21.50;59.80;;;;;;5032215;28;20006;-68
2021/06/15 09:54:00;;;;;;;;;;;21.50;59.90;;;;;;5041466;28;20458;-69
2021/06/15 09:56:25;;;;;;;;;;;21.50;59.50;;;;;;5041647;28;20311;-68
2021/06/15 09:58:52;;;;;;;;;;;21.50;59.80;;;;;;5041167;28;19936;-68
2021/06/15 10:01:27;;;;;;;;;;;21.50;59.70;;;;;;5041763;28;19976;-68
2021/06/15 10:04:11;;;;;;;;;;;21.50;59.70;;;;;;5041422;28;20344;-68
2021/06/15 10:06:38;;;;;;;;;;;21.50;59.60;;;;;;5038377;28;19959;-68
2021/06/15 10:09:03;;;;;;;;;;;21.50;59.70;;;;;;5041773;28;19944;-68
2021/06/15 10:11:30;;;;;;;;;;;21.50;59.70;;;;;;5041723;28;20426;-68
2021/06/15 10:13:57;;;;;;;;;;;21.50;59.60;;;;;;5037312;28;19921;-68
2021/06/15 10:16:22;;;;;;;;;;;21.50;59.60;;;;;;5041893;28;20384;-69
2021/06/15 10:18:48;;;;;;;;;;;21.50;59.70;;;;;;5033154;28;19917;-68
2021/06/15 10:21:13;;;;;;;;;;;21.50;59.70;;;;;;5024079;28;20514;-68
2021/06/15 10:23:39;;;;;;;;;;;21.50;59.70;;;;;;5036128;28;19960;-68
2021/06/15 10:26:06;;;;;;;;;;;21.50;59.60;;;;;;5042209;28;19924;-68
2021/06/15 10:28:31;;;;;;;;;;;21.60;59.50;;;;;;5037244;28;20387;-69
2021/06/15 10:31:01;;;;;;;;;;;21.60;59.70;;;;;;5041523;28;19917;-69
2021/06/15 10:33:26;;;;;;;;;;;21.60;59.70;;;;;;5037145;28;19920;-69
2021/06/15 10:35:55;;;;;;;;;;;21.60;59.80;;;;;;5024635;28;19916;-68
2021/06/15 10:38:29;;;;;;;;;;;21.60;59.80;;;;;;5042379;28;19928;-67
2021/06/15 10:40:55;;;;;;;;;;;21.60;59.70;;;;;;5041638;28;20713;-69
2021/06/15 10:43:22;;;;;;;;;;;21.60;60.00;;;;;;5042159;28;20722;-68
2021/06/15 10:45:51;;;;;;;;;;;21.60;60.00;;;;;;5041639;28;20050;-68
2021/06/15 10:48:16;;;;;;;;;;;21.60;60.10;;;;;;5041827;28;19927;-68
2021/06/15 10:50:49;;;;;;;;;;;21.60;60.20;;;;;;5041315;28;19921;-68
2021/06/15 10:53:15;;;;;;;;;;;21.60;60.10;;;;;;5037997;28;20425;-68
2021/06/15 10:55:40;;;;;;;;;;;21.60;60.20;;;;;;5042212;28;19913;-68
2021/06/15 10:58:06;;;;;;;;;;;21.60;60.20;;;;;;5041462;28;19916;-69
2021/06/15 11:00:33;;;;;;;;;;;21.70;60.10;;;;;;5030595;28;20529;-68
2021/06/15 11:03:16;;;;;;;;;;;21.60;60.00;;;;;;5040568;28;19960;-69
2021/06/15 11:05:43;;;;;;;;;;;21.60;59.80;;;;;;5041731;28;19927;-69
2021/06/15 11:08:18;;;;;;;;;;;21.70;59.70;;;;;;5042000;28;20630;-68
2021/06/15 11:10:47;;;;;;;;;;;21.70;59.50;;;;;;5033580;28;19948;-68
2021/06/15 11:13:12;;;;;;;;;;;21.60;59.40;;;;;;5042159;28;19967;-68
2021/06/15 11:15:58;;;;;;;;;;;21.70;59.40;;;;;;5041809;28;20790;-68
2021/06/15 11:18:24;;;;;;;;;;;21.70;59.30;;;;;;5041053;28;19913;-69
2021/06/15 11:20:49;;;;;;;;;;;21.70;59.20;;;;;;5036799;28;19919;-68
2021/06/15 11:23:16;;;;;;;;;;;21.70;59.20;;;;;;5023827;28;19921;-68
2021/06/15 11:25:49;;;;;;;;;;;21.60;59.20;;;;;;5041795;28;20013;-68
2021/06/15 11:28:33;;;;;;;;;;;21.70;59.20;;;;;;5033010;28;19982;-68
2021/06/15 11:31:17;;;;;;;;;;;21.70;59.30;;;;;;5041053;28;19917;-68
2021/06/15 11:33:58;;;;;;;;;;;21.70;59.20;;;;;;5040936;28;20287;-68
2021/06/15 11:36:42;;;;;;;;;;;21.70;59.10;;;;;;5041012;28;19916;-68
2021/06/15 11:39:23;;;;;;;;;;;21.70;59.10;;;;;;5040839;28;19917;-68
2021/06/15 11:42:07;;;;;;;;;;;21.70;59.10;;;;;;5040971;28;19916;-68
2021/06/15 11:44:45;;;;;;;;;;;21.70;59.10;;;;;;5040686;28;19913;-68
2021/06/15 11:47:26;;;;;;;;;;;21.70;58.90;;;;;;5038771;28;20410;-69
2021/06/15 11:50:04;;;;;;;;;;;21.70;58.70;;;;;;5022036;28;19916;-68
2021/06/15 11:52:29;;;;;;;;;;;21.80;58.80;;;;;;5039538;28;20334;-68
2021/06/15 11:54:55;;;;;;;;;;;21.80;58.80;;;;;;5041737;28;19946;-69
2021/06/15 11:57:20;;;;;;;;;;;21.80;59.40;;;;;;5043458;28;20000;-68
2021/06/15 11:59:46;;;;;;;;;;;21.80;58.70;;;;;;5041587;28;19972;-69
2021/06/15 12:02:11;;;;;;;;;;;21.80;58.80;;;;;;5042851;28;20390;-68
2021/06/15 12:04:37;;;;;;;;;;;21.80;58.60;;;;;;5029672;28;19912;-68
2021/06/15 12:07:16;;;;;;;;;;;21.80;58.70;;;;;;5025039;28;20384;-68
2021/06/15 12:10:00;;;;;;;;;;;21.80;58.60;;;;;;5035457;28;19913;-68
2021/06/15 12:12:25;;;;;;;;;;;21.80;58.60;;;;;;5043947;28;20003;-69
2021/06/15 12:14:50;;;;;;;;;;;21.80;58.50;;;;;;5047705;28;19962;-68
2021/06/15 12:17:16;;;;;;;;;;;21.80;58.40;;;;;;5046322;28;19912;-68
2021/06/15 12:19:41;;;;;;;;;;;21.80;58.40;;;;;;5046389;28;19913;-68
2021/06/15 12:22:13;;;;;;;;;;;21.80;58.10;;;;;;5046733;28;19951;-69
2021/06/15 12:24:42;;;;;;;;;;;21.80;58.10;;;;;;5031599;28;19923;-68
2021/06/15 12:27:17;;;;;;;;;;;21.80;58.80;;;;;;5046245;28;19920;-68
2021/06/15 12:29:43;;;;;;;;;;;21.90;58.10;;;;;;5031920;28;19916;-68
2021/06/15 12:32:08;;;;;;;;;;;21.80;58.20;;;;;;5046343;28;20650;-69
2021/06/15 12:34:34;;;;;;;;;;;21.90;58.20;;;;;;5046483;28;19917;-68
2021/06/15 12:37:03;;;;;;;;;;;21.90;58.30;;;;;;5046018;28;19920;-68
2021/06/15 12:39:29;;;;;;;;;;;21.90;58.50;;;;;;5045930;28;19913;-68
2021/06/15 12:41:59;;;;;;;;;;;21.90;58.40;;;;;;5028042;28;20401;-68
2021/06/15 12:44:25;;;;;;;;;;;21.90;58.60;;;;;;5046364;28;19913;-68
2021/06/15 12:46:56;;;;;;;;;;;21.90;58.70;;;;;;5045989;28;20440;-68
2021/06/15 12:49:22;;;;;;;;;;;21.90;58.70;;;;;;5027851;28;19917;-68
2021/06/15 12:51:48;;;;;;;;;;;21.90;58.80;;;;;;5044288;28;20299;-69
2021/06/15 12:54:16;;;;;;;;;;;21.90;58.40;;;;;;5045726;28;19913;-68
2021/06/15 12:56:51;;;;;;;;;;;21.90;58.40;;;;;;5037487;28;19948;-68
2021/06/15 12:59:16;;;;;;;;;;;22.00;58.50;;;;;;5045927;28;20410;-68
2021/06/15 13:01:42;;;;;;;;;;;22.00;59.20;;;;;;5045726;28;19912;-68
2021/06/15 13:04:17;;;;;;;;;;;22.00;58.50;;;;;;5046315;28;19975;-68
2021/06/15 13:06:43;;;;;;;;;;;22.00;58.60;;;;;;5045613;28;20438;-68
2021/06/15 13:09:18;;;;;;;;;;;22.00;58.80;;;;;;5045583;28;19913;-68
2021/06/15 13:12:04;;;;;;;;;;;22.00;58.50;;;;;;5042514;28;19967;-68
2021/06/15 13:14:30;;;;;;;;;;;22.10;58.70;;;;;;5043596;28;19943;-68
2021/06/15 13:17:22;;;;;;;;;;;22.10;59.10;;;;;;5045778;28;19963;-67
2021/06/15 13:19:49;;;;;;;;;;;22.10;59.10;;;;;;5040919;28;19920;-68
2021/06/15 13:22:19;;;;;;;;;;;22.10;59.00;;;;;;5045652;28;19913;-68
2021/06/15 13:24:45;;;;;;;;;;;22.10;58.70;;;;;;5035919;28;22041;-67
2021/06/15 13:27:23;;;;;;;;;;;22.10;59.10;;;;;;5042673;28;19919;-68
2021/06/15 13:29:48;;;;;;;;;;;22.10;59.00;;;;;;5044899;28;19920;-68
2021/06/15 13:32:15;;;;;;;;;;;22.10;59.10;;;;;;5045345;28;20003;-68
2021/06/15 13:34:56;;;;;;;;;;;22.10;58.90;;;;;;5047198;28;19928;-69
2021/06/15 13:37:25;;;;;;;;;;;22.10;59.00;;;;;;5043744;28;19912;-69
2021/06/15 13:39:50;;;;;;;;;;;22.10;58.70;;;;;;5039992;28;20433;-68
2021/06/15 13:42:21;;;;;;;;;;;22.20;58.70;;;;;;5045295;28;19929;-68
2021/06/15 13:44:46;;;;;;;;;;;22.20;58.60;;;;;;5045559;28;20375;-69
2021/06/15 13:47:12;;;;;;;;;;;22.20;58.70;;;;;;5038825;28;19923;-68
2021/06/15 13:49:37;;;;;;;;;;;22.20;58.60;;;;;;5044924;28;20292;-68
2021/06/15 13:52:05;;;;;;;;;;;22.20;58.60;;;;;;5044683;28;19997;-68
2021/06/15 13:54:30;;;;;;;;;;;22.20;58.50;;;;;;5044762;28;19917;-68
2021/06/15 13:56:56;;;;;;;;;;;22.20;58.40;;;;;;5045353;28;20607;-68
2021/06/15 13:59:21;;;;;;;;;;;22.20;58.30;;;;;;5044516;28;19912;-68
2021/06/15 14:01:47;;;;;;;;;;;22.20;58.60;;;;;;5044998;28;19924;-68
2021/06/15 14:04:12;;;;;;;;;;;22.20;59.20;;;;;;5044609;28;20349;-68
2021/06/15 14:06:38;;;;;;;;;;;22.30;58.60;;;;;;5043166;28;19920;-68
2021/06/15 14:09:03;;;;;;;;;;;22.20;58.60;;;;;;5044590;28;19924;-68
2021/06/15 14:11:29;;;;;;;;;;;22.30;58.70;;;;;;5044213;28;19924;-68
2021/06/15 14:13:54;;;;;;;;;;;22.30;58.60;;;;;;5043511;28;19921;-67
2021/06/15 14:16:20;;;;;;;;;;;22.20;58.60;;;;;;5046741;28;19917;-68
2021/06/15 14:18:45;;;;;;;;;;;22.30;58.80;;;;;;5041002;28;19962;-68
2021/06/15 14:21:11;;;;;;;;;;;22.30;58.50;;;;;;5043903;28;19916;-68